• Join FlightAware (Why Join?)
  • Login
  • US Flag 
Rudolph Flight #1: Arrived! 
02:01PM EST


 

Airport Tracker/Info


-or-


 

Live Flight TrackerFlight Track Log ✈ UPS1189 ✈ 20-Dec-2013 ✈ KPHL - KSDF

Flight Track Log - Related Links

Times and Time Zones

All times are in EST time to prevent confusion due to time zone crossing. See the UPS1189 flight status page for this flight to view local times or setup timezone preferences in your user account.

Time Position Orientation Groundspeed Altitude Reporting Facility
EST Latitude Longitude Course Direction KTS MPH feet Rate Location/Type
11:24PM 39.8566 -75.2857 245° Southwest 148 170 2,100  Level FlightAware ADS-B (KWWD)
11:24PM 39.8479 -75.3073 242° Southwest 196 226 2,500 2,100 Climbing FlightAware ADS-B (KWWD)
11:24PM 39.8397 -75.3284 243° Southwest 204 235 3,600 3,600 Climbing FlightAware ADS-B (KWWD)
11:25PM 39.8324 -75.3491 245° Southwest 213 245 4,800 3,000 Climbing FlightAware ADS-B
11:25PM 39.8300 -75.3773 264° West 234 269 5,600 3,240 Climbing FlightAware ADS-B
11:25PM 39.8308 -75.3860 277° West 238 274 6,100 4,200 Climbing FlightAware ADS-B (KOQN)
11:25PM 39.8324 -75.3974 280° West 237 273 7,000 3,120 Climbing FlightAware ADS-B
11:26PM 39.8370 -75.4336 279° West 244 281 8,000 3,120 Climbing FlightAware ADS-B (KWWD)
11:26PM 39.8400 -75.4648 277° West 252 290 9,100 2,460 Climbing FlightAware ADS-B (KWWD)
11:26PM 39.8431 -75.4941 278° West 254 292 9,700 1,260 Climbing FlightAware ADS-B
11:27PM 39.8457 -75.5189 278° West 260 299 9,900 300 Climbing FlightAware ADS-B
11:27PM 39.8493 -75.5532 278° West 300 345 9,900 120 Level FlightAware ADS-B
11:27PM 39.8530 -75.5902 277° West 313 360 10,000  Climbing FlightAware ADS-B
11:28PM 39.8564 -75.6234 278° West 310 357 9,900 -180 Descending FlightAware ADS-B
11:28PM 39.8601 -75.6732 276° West 308 354 9,900 120 Level FlightAware ADS-B (KWWD)
11:28PM 39.8625 -75.7033 276° West 312 359 10,000 2,160 Climbing FlightAware ADS-B (KWWD)
11:29PM 39.8623 -75.7851 270° West 317 365 12,100 2,760 Climbing FlightAware ADS-B (KWWD)
11:29PM 39.8597 -75.8022 259° West 334 384 12,500 3,540 Climbing FlightAware ADS-B (YXSG)
11:30PM 39.8430 -75.8755 253° West 360 414 14,900 3,480 Climbing FlightAware ADS-B
11:30PM 39.8407 -75.8856 254° West 363 418 15,200 3,180 Climbing FlightAware ADS-B (YXSG)
11:31PM 39.8205 -75.9723 253° West 377 434 17,400 3,540 Climbing FlightAware ADS-B
11:31PM 39.8015 -76.0520 253° West 386 444 19,400 3,420 Climbing FlightAware ADS-B (YXSG)
11:32PM 39.7799 -76.1412 253° West 396 456 21,600 3,360 Climbing FlightAware ADS-B (YXSG)
11:32PM 39.7668 -76.1988 254° West 407 468 23,000 2,820 Climbing FlightAware ADS-B
11:33PM 39.7515 -76.2692 254° West 413 475 24,300 2,520 Climbing FlightAware ADS-B (YXSG)
11:33PM 39.7322 -76.3564 254° West 423 487 25,800 2,820 Climbing FlightAware ADS-B (KWWD)
11:34PM 39.7219 -76.4018 254° West 425 489 26,800 2,700 Climbing FlightAware ADS-B
11:34PM 39.7134 -76.4370 252° West 424 488 27,400 2,280 Climbing FlightAware ADS-B
11:35PM 39.6870 -76.5559 254° West 426 490 29,200 2,400 Climbing FlightAware ADS-B (KWWD)
11:35PM 39.6786 -76.5928 254° West 425 489 29,900 2,700 Climbing FlightAware ADS-B (KWWD)
11:36PM 39.6676 -76.6411 253° West 417 480 31,400 1,920 Climbing FlightAware ADS-B (YXSG)
11:36PM 39.6433 -76.7477 254° West 410 472 32,000 540 Climbing FlightAware ADS-B (KWWD)
11:37PM 39.6249 -76.8278 253° West 410 472 32,000  Level FlightAware ADS-B (KWWD)
11:38PM 39.6043 -76.9178 253° West 408 470 32,000  Level FlightAware ADS-B (YXSG)
11:38PM 39.5669 -77.0797 253° West 410 472 32,000  Level FlightAware ADS-B (KWWD)
11:39PM 39.5470 -77.1649 253° West 403 464 32,000  Level FlightAware ADS-B (YXSG)
11:40PM 39.5201 -77.2805 253° West 401 461 32,000  Level FlightAware ADS-B (YXSG)
11:41PM 39.4873 -77.4199 253° West 401 461 32,000  Level FlightAware ADS-B (YXSG)
11:43PM 39.4381 -77.6280 253° West 402 463 32,000  Level FlightAware ADS-B (YXSG)
11:44PM 39.3981 -77.7959 253° West 401 461 32,000  Level FlightAware ADS-B (KWWD)
11:45PM 39.3481 -77.9426 246° West 404 465 32,000  Level FlightAware ADS-B (KWWD)
11:48PM 39.1646 -78.4020 243° Southwest 411 473 32,000  Level FlightAware ADS-B (KWWD)
11:49PM 39.1196 -78.5133 242° Southwest 408 470 32,000  Level FlightAware ADS-B (KWWD)
11:55PM 38.8346 -79.2322 243° Southwest 413 475 32,000  Level FlightAware ADS-B (KWWD)
11:56PM 38.7960 -79.4434 257° West 415 478 32,000  Level FlightAware ADS-B (KWWD)
11:57PM 38.7711 -79.5828 257° West 417 480 32,000  Level Indianapolis Center
11:58PM 38.7464 -79.7214 257° West 414 476 32,000  Level Indianapolis Center
11:59PM 38.7186 -79.8631 256° West 420 483 32,000  Level Indianapolis Center
12:00AM 38.6925 -80.0064 257° West 415 478 32,000  Level Indianapolis Center
12:01AM 38.6656 -80.1492 256° West 413 475 32,000  Level Indianapolis Center
12:02AM 38.6394 -80.2922 257° West 413 475 32,000  Level Indianapolis Center
12:03AM 38.6069 -80.4614 256° West 409 471 32,000  Level Indianapolis Center
12:04AM 38.5808 -80.6011 257° West 406 467 32,000  Level Indianapolis Center
12:05AM 38.5539 -80.7428 256° West 409 471 32,000  Level Indianapolis Center
12:06AM 38.5261 -80.8822 256° West 405 466 32,000  Level Indianapolis Center
12:07AM 38.4992 -81.0231 256° West 405 466 32,000  Level Indianapolis Center
12:08AM 38.4708 -81.1639 256° West 407 468 32,000  Level Indianapolis Center
12:09AM 38.4431 -81.3053 256° West 406 467 32,000  Level Indianapolis Center
12:10AM 38.4153 -81.4469 256° West 407 468 32,000  Level Indianapolis Center
12:11AM 38.3864 -81.5878 255° West 406 467 32,000  Level Indianapolis Center
12:12AM 38.3589 -81.7267 256° West 402 463 32,000  Level Indianapolis Center
12:13AM 38.3247 -81.8631 252° West 402 463 32,000  Level Indianapolis Center
12:14AM 38.2867 -81.9975 250° West 403 464 32,000  Level Indianapolis Center
12:15AM 38.2489 -82.1311 250° West 401 461 32,000  Level Indianapolis Center
12:16AM 38.2131 -82.2633 251° West 396 456 32,000  Level Indianapolis Center
12:22AM 38.0549 -83.0634 251° West 395 455 32,000  Level FlightAware ADS-B
12:24AM 38.0147 -83.2609 256° West 398 458 32,000  Level FlightAware ADS-B
12:25AM 37.9942 -83.3600 256° West 395 455 32,000  Level Indianapolis Center
12:26AM 37.9661 -83.4961 255° West 398 458 32,000  Level Indianapolis Center
12:27AM 37.9378 -83.6317 255° West 398 458 32,000  Level Indianapolis Center
12:28AM 37.9089 -83.7681 255° West 399 459 32,000  Level Indianapolis Center
12:29AM 37.8811 -83.9014 255° West 394 453 32,000 -1,260 Level Indianapolis Center
12:30AM 37.8542 -84.0281 255° West 377 434 29,500 -2,580 Descending Indianapolis Center
12:31AM 37.8294 -84.1461 255° West 352 405 26,900 -2,640 Descending Indianapolis Center
12:32AM 37.7847 -84.2486 241° Southwest 342 394 24,200 -2,460 Descending Indianapolis Center
12:33AM 37.7281 -84.3614 238° Southwest 330 380 21,900 -2,160 Descending Indianapolis Center
12:34AM 37.7006 -84.4672 252° West 318 366 19,900 -2,160 Descending Indianapolis Center
12:35AM 37.6894 -84.5747 263° West 310 357 17,600 -1,920 Descending Indianapolis Center
12:36AM 37.6808 -84.6808 264° West 304 350 16,000 -1,140 Descending Indianapolis Center
12:37AM 37.6706 -84.7844 263° West 299 344 15,300 -1,200 Descending Indianapolis Center
12:38AM 37.6606 -84.8864 263° West 294 338 13,600 -1,680 Descending Indianapolis Center
12:39AM 37.6736 -84.9825 280° West 297 342 12,000 -1,560 Descending Indianapolis Center
12:40AM 37.7333 -85.0633 313° West 311 358 10,500 -1,080 Descending Indianapolis Center
12:41AM 37.7886 -85.1403 312° West 298 343 9,900 -780 Descending Indianapolis Center
12:42AM 37.8486 -85.2206 313° West 288 331 9,000 -1,080 Descending Indianapolis Center
12:43AM 37.8972 -85.2911 311° West 272 313 7,800 -1,200 Descending Indianapolis Center
12:44AM 37.9472 -85.3589 313° West 264 304 6,600 -900 Descending Indianapolis Center
12:45AM 37.9969 -85.4264 313° West 261 300 6,000 -300 Descending Indianapolis Center
12:46AM 38.0431 -85.4958 310° West 258 297 6,000  Level Indianapolis Center
12:47AM 38.0939 -85.5636 314° West 260 299 6,000  Level Indianapolis Center
12:48AM 38.1608 -85.6056 334° Northwest 273 314 6,000 -300 Level Indianapolis Center
12:49AM 38.2339 -85.6367 342° North 277 319 5,400 -540 Descending Indianapolis Center
12:50AM 38.3078 -85.6608 346° North 276 318 5,000 -240 Descending Indianapolis Center
12:51AM 38.3636 -85.6822 343° North 236 272 5,000  Level Indianapolis Center
12:52AM 38.4214 -85.7031 344° North 217 250 5,000  Level Indianapolis Center
12:53AM 38.4778 -85.7244 343° North 213 245 5,000  Level Indianapolis Center
12:54AM 38.5272 -85.7544 335° Northwest 203 234 5,000  Level Indianapolis Center
12:55AM 38.4978 -85.7933 226° Southwest 174 200 5,000  Level Indianapolis Center
12:56AM 38.4517 -85.8111 197° South 172 198 5,000 -60 Level Indianapolis Center
12:57AM 38.4011 -85.8044 174° South 184 212 4,900 -660 Descending Indianapolis Center
12:58AM 38.3408 -85.7842 165° South 192 221 3,700 -1,020 Descending Indianapolis Center
12:59AM 38.3017 -85.7708 165° South 174 200 2,900 -600 Descending Indianapolis Center
01:00AM 38.2703 -85.7603 165° South 162 186 2,500 -660 Descending Indianapolis Center
01:02AM 38.2167 -85.7333 158° South 120 138 1,000 -840 Descending Louisville TRACON